sensor_id;sensor_type;location;lat;lon;timestamp;pressure;altitude;pressure_sealevel;temperature;humidity
48404;BME280;34202;52.536;6.042;2023-05-18T00:03:28;103018.88;;;5.88;75.83
48404;BME280;34202;52.536;6.042;2023-05-18T00:08:33;103020.14;;;5.83;75.87
48404;BME280;34202;52.536;6.042;2023-05-18T00:13:33;103019.98;;;5.78;76.13
48404;BME280;34202;52.536;6.042;2023-05-18T00:18:34;103019.68;;;5.73;76.17
48404;BME280;34202;52.536;6.042;2023-05-18T00:23:35;103020.92;;;5.68;76.32
48404;BME280;34202;52.536;6.042;2023-05-18T00:28:38;103025.63;;;5.63;76.50
48404;BME280;34202;52.536;6.042;2023-05-18T00:33:38;103031.95;;;5.58;76.65
48404;BME280;34202;52.536;6.042;2023-05-18T00:38:39;103031.41;;;5.53;76.96
48404;BME280;34202;52.536;6.042;2023-05-18T00:43:40;103030.20;;;5.47;77.22
48404;BME280;34202;52.536;6.042;2023-05-18T00:48:40;103031.30;;;5.43;77.36
48404;BME280;34202;52.536;6.042;2023-05-18T00:53:42;103027.42;;;5.39;77.63
48404;BME280;34202;52.536;6.042;2023-05-18T00:58:43;103030.70;;;5.36;77.85
48404;BME280;34202;52.536;6.042;2023-05-18T01:03:44;103029.88;;;5.34;77.95
48404;BME280;34202;52.536;6.042;2023-05-18T01:08:44;103033.19;;;5.31;78.20
48404;BME280;34202;52.536;6.042;2023-05-18T01:24:51;103037.17;;;5.18;79.03
48404;BME280;34202;52.536;6.042;2023-05-18T01:29:56;103033.25;;;5.14;79.17
48404;BME280;34202;52.536;6.042;2023-05-18T01:34:57;103035.42;;;5.10;79.44
48404;BME280;34202;52.536;6.042;2023-05-18T01:39:57;103036.75;;;5.06;79.60
48404;BME280;34202;52.536;6.042;2023-05-18T01:45:02;103038.63;;;5.03;79.81
48404;BME280;34202;52.536;6.042;2023-05-18T01:50:12;103044.49;;;5.00;80.09
48404;BME280;34202;52.536;6.042;2023-05-18T01:55:14;103046.42;;;5.01;80.19
48404;BME280;34202;52.536;6.042;2023-05-18T02:00:17;103047.70;;;5.02;80.23
48404;BME280;34202;52.536;6.042;2023-05-18T02:05:17;103043.98;;;5.03;80.39
48404;BME280;34202;52.536;6.042;2023-05-18T02:10:18;103040.91;;;5.04;80.22
48404;BME280;34202;52.536;6.042;2023-05-18T02:15:18;103047.19;;;5.05;80.45
48404;BME280;34202;52.536;6.042;2023-05-18T02:20:19;103046.70;;;5.06;80.53
48404;BME280;34202;52.536;6.042;2023-05-18T02:25:19;103043.54;;;5.05;80.84
48404;BME280;34202;52.536;6.042;2023-05-18T02:30:20;103042.48;;;5.01;81.12
48404;BME280;34202;52.536;6.042;2023-05-18T02:35:20;103041.98;;;4.99;81.47
48404;BME280;34202;52.536;6.042;2023-05-18T02:40:20;103044.45;;;4.97;81.83
48404;BME280;34202;52.536;6.042;2023-05-18T02:45:21;103043.08;;;4.94;81.81
48404;BME280;34202;52.536;6.042;2023-05-18T02:50:22;103044.64;;;4.92;82.24
48404;BME280;34202;52.536;6.042;2023-05-18T02:55:22;103039.45;;;4.89;82.27
48404;BME280;34202;52.536;6.042;2023-05-18T03:00:23;103041.94;;;4.88;82.38
48404;BME280;34202;52.536;6.042;2023-05-18T03:05:23;103036.89;;;4.84;82.90
48404;BME280;34202;52.536;6.042;2023-05-18T03:10:23;103039.40;;;4.83;83.01
48404;BME280;34202;52.536;6.042;2023-05-18T03:15:24;103039.29;;;4.84;83.35
48404;BME280;34202;52.536;6.042;2023-05-18T03:20:24;103041.39;;;4.84;83.44
48404;BME280;34202;52.536;6.042;2023-05-18T03:25:25;103044.38;;;4.82;83.52
48404;BME280;34202;52.536;6.042;2023-05-18T03:30:26;103039.65;;;4.81;83.46
48404;BME280;34202;52.536;6.042;2023-05-18T03:35:26;103033.87;;;4.80;83.79
48404;BME280;34202;52.536;6.042;2023-05-18T03:40:27;103039.77;;;4.78;83.90
48404;BME280;34202;52.536;6.042;2023-05-18T03:45:28;103046.50;;;4.78;83.76
48404;BME280;34202;52.536;6.042;2023-05-18T03:50:28;103049.27;;;4.78;83.91
48404;BME280;34202;52.536;6.042;2023-05-18T03:55:29;103049.12;;;4.78;83.95
48404;BME280;34202;52.536;6.042;2023-05-18T04:00:29;103053.42;;;4.78;84.20
48404;BME280;34202;52.536;6.042;2023-05-18T04:05:30;103055.52;;;4.79;84.28
48404;BME280;34202;52.536;6.042;2023-05-18T04:10:30;103056.95;;;4.79;84.71
48404;BME280;34202;52.536;6.042;2023-05-18T04:15:31;103060.08;;;4.80;84.90
48404;BME280;34202;52.536;6.042;2023-05-18T04:20:32;103061.46;;;4.80;84.75
48404;BME280;34202;52.536;6.042;2023-05-18T04:25:33;103067.67;;;4.82;84.93
48404;BME280;34202;52.536;6.042;2023-05-18T04:30:34;103075.66;;;4.86;84.94
48404;BME280;34202;52.536;6.042;2023-05-18T04:35:36;103077.63;;;4.90;85.01
48404;BME280;34202;52.536;6.042;2023-05-18T04:40:36;103074.56;;;4.93;85.20
48404;BME280;34202;52.536;6.042;2023-05-18T04:45:42;103078.95;;;4.97;85.30
48404;BME280;34202;52.536;6.042;2023-05-18T04:50:45;103085.15;;;5.02;85.41
48404;BME280;34202;52.536;6.042;2023-05-18T04:55:48;103090.64;;;5.07;85.75
48404;BME280;34202;52.536;6.042;2023-05-18T05:00:49;103090.13;;;5.12;85.94
48404;BME280;34202;52.536;6.042;2023-05-18T05:05:49;103086.98;;;5.19;85.96
48404;BME280;34202;52.536;6.042;2023-05-18T05:10:50;103088.77;;;5.26;85.90
48404;BME280;34202;52.536;6.042;2023-05-18T05:15:50;103093.77;;;5.34;85.91
48404;BME280;34202;52.536;6.042;2023-05-18T05:20:52;103098.61;;;5.42;85.92
48404;BME280;34202;52.536;6.042;2023-05-18T05:25:53;103106.09;;;5.51;85.93
48404;BME280;34202;52.536;6.042;2023-05-18T05:30:53;103101.14;;;5.60;85.97
48404;BME280;34202;52.536;6.042;2023-05-18T05:35:53;103103.14;;;5.70;85.82
48404;BME280;34202;52.536;6.042;2023-05-18T05:40:54;103109.30;;;5.80;85.88
48404;BME280;34202;52.536;6.042;2023-05-18T05:45:54;103110.18;;;5.92;85.78
48404;BME280;34202;52.536;6.042;2023-05-18T05:50:55;103114.49;;;6.05;85.94
48404;BME280;34202;52.536;6.042;2023-05-18T05:55:55;103115.04;;;6.22;86.23
48404;BME280;34202;52.536;6.042;2023-05-18T06:00:56;103114.50;;;6.42;86.27
48404;BME280;34202;52.536;6.042;2023-05-18T06:05:56;103119.45;;;6.64;85.65
48404;BME280;34202;52.536;6.042;2023-05-18T06:10:57;103112.29;;;6.87;85.20
48404;BME280;34202;52.536;6.042;2023-05-18T06:15:58;103114.63;;;7.10;84.48
48404;BME280;34202;52.536;6.042;2023-05-18T06:20:58;103115.14;;;7.28;83.35
48404;BME280;34202;52.536;6.042;2023-05-18T06:25:58;103112.37;;;7.49;83.13
48404;BME280;34202;52.536;6.042;2023-05-18T06:30:59;103117.30;;;7.70;81.99
48404;BME280;34202;52.536;6.042;2023-05-18T06:35:59;103117.18;;;7.90;81.43
48404;BME280;34202;52.536;6.042;2023-05-18T06:41:00;103118.63;;;8.14;81.57
48404;BME280;34202;52.536;6.042;2023-05-18T06:46:00;103123.11;;;8.43;81.33
48404;BME280;34202;52.536;6.042;2023-05-18T06:51:00;103127.77;;;8.69;80.46
48404;BME280;34202;52.536;6.042;2023-05-18T06:56:01;103131.65;;;8.87;78.62
48404;BME280;34202;52.536;6.042;2023-05-18T07:01:01;103129.98;;;8.99;77.43
48404;BME280;34202;52.536;6.042;2023-05-18T07:06:03;103133.14;;;9.14;76.89
48404;BME280;34202;52.536;6.042;2023-05-18T07:11:06;103133.64;;;9.31;75.92
48404;BME280;34202;52.536;6.042;2023-05-18T07:16:06;103139.02;;;9.46;75.14
48404;BME280;34202;52.536;6.042;2023-05-18T07:21:07;103136.36;;;9.59;74.57
48404;BME280;34202;52.536;6.042;2023-05-18T07:26:09;103141.42;;;9.78;74.30
48404;BME280;34202;52.536;6.042;2023-05-18T07:31:11;103140.87;;;9.93;73.20
48404;BME280;34202;52.536;6.042;2023-05-18T07:36:13;103139.52;;;10.01;72.02
48404;BME280;34202;52.536;6.042;2023-05-18T07:41:14;103140.33;;;9.96;69.89
48404;BME280;34202;52.536;6.042;2023-05-18T07:46:14;103146.63;;;9.81;68.77
48404;BME280;34202;52.536;6.042;2023-05-18T07:51:15;103149.73;;;9.70;68.52
48404;BME280;34202;52.536;6.042;2023-05-18T07:56:15;103144.11;;;9.73;69.34
48404;BME280;34202;52.536;6.042;2023-05-18T08:01:17;103147.79;;;9.84;69.53
48404;BME280;34202;52.536;6.042;2023-05-18T08:06:17;103157.64;;;9.91;68.45
48404;BME280;34202;52.536;6.042;2023-05-18T08:11:17;103158.04;;;9.95;68.80
48404;BME280;34202;52.536;6.042;2023-05-18T08:16:18;103154.31;;;10.01;67.93
48404;BME280;34202;52.536;6.042;2023-05-18T08:21:18;103148.07;;;10.02;67.85
48404;BME280;34202;52.536;6.042;2023-05-18T08:26:18;103151.78;;;10.07;67.60
48404;BME280;34202;52.536;6.042;2023-05-18T08:31:19;103153.56;;;10.15;67.20
48404;BME280;34202;52.536;6.042;2023-05-18T08:36:20;103151.13;;;10.31;67.05
48404;BME280;34202;52.536;6.042;2023-05-18T08:41:47;103146.77;;;10.42;66.83
48404;BME280;34202;52.536;6.042;2023-05-18T08:46:49;103144.92;;;10.63;66.70
48404;BME280;34202;52.536;6.042;2023-05-18T08:51:54;103141.79;;;10.79;66.19
48404;BME280;34202;52.536;6.042;2023-05-18T08:56:56;103133.35;;;10.98;66.31
48404;BME280;34202;52.536;6.042;2023-05-18T09:01:58;103132.88;;;11.17;65.79
48404;BME280;34202;52.536;6.042;2023-05-18T09:06:58;103130.05;;;11.42;66.15
48404;BME280;34202;52.536;6.042;2023-05-18T09:12:01;103127.42;;;11.68;65.74
48404;BME280;34202;52.536;6.042;2023-05-18T09:17:02;103131.97;;;11.91;64.94
48404;BME280;34202;52.536;6.042;2023-05-18T09:22:03;103124.21;;;12.07;64.36
48404;BME280;34202;52.536;6.042;2023-05-18T09:27:04;103114.89;;;12.25;63.99
48404;BME280;34202;52.536;6.042;2023-05-18T09:32:10;103109.23;;;12.47;62.93
48404;BME280;34202;52.536;6.042;2023-05-18T09:37:10;103107.27;;;12.41;61.52
48404;BME280;34202;52.536;6.042;2023-05-18T09:42:11;103101.39;;;12.58;62.37
48404;BME280;34202;52.536;6.042;2023-05-18T09:47:11;103100.11;;;12.93;62.52
48404;BME280;34202;52.536;6.042;2023-05-18T09:52:11;103097.67;;;13.20;61.70
48404;BME280;34202;52.536;6.042;2023-05-18T09:57:12;103096.18;;;13.44;61.55
48404;BME280;34202;52.536;6.042;2023-05-18T10:02:13;103088.95;;;13.71;60.81
48404;BME280;34202;52.536;6.042;2023-05-18T10:07:16;103079.27;;;13.87;59.78
48404;BME280;34202;52.536;6.042;2023-05-18T10:12:17;103081.95;;;14.14;60.02
48404;BME280;34202;52.536;6.042;2023-05-18T10:17:22;103076.66;;;14.39;59.49
48404;BME280;34202;52.536;6.042;2023-05-18T10:22:24;103077.77;;;14.54;57.82
48404;BME280;34202;52.536;6.042;2023-05-18T10:27:26;103071.62;;;14.46;57.08
48404;BME280;34202;52.536;6.042;2023-05-18T10:32:28;103070.02;;;14.39;55.66
48404;BME280;34202;52.536;6.042;2023-05-18T10:37:32;103065.58;;;14.37;56.13
48404;BME280;34202;52.536;6.042;2023-05-18T10:42:34;103056.73;;;14.67;56.98
48404;BME280;34202;52.536;6.042;2023-05-18T10:47:35;103052.80;;;15.00;56.41
48404;BME280;34202;52.536;6.042;2023-05-18T10:52:39;103056.44;;;15.20;55.82
48404;BME280;34202;52.536;6.042;2023-05-18T10:57:45;103057.32;;;15.44;55.30
48404;BME280;34202;52.536;6.042;2023-05-18T11:02:48;103052.05;;;15.61;55.09
48404;BME280;34202;52.536;6.042;2023-05-18T11:07:49;103046.71;;;15.90;54.97
48404;BME280;34202;52.536;6.042;2023-05-18T11:12:51;103047.39;;;15.89;52.33
48404;BME280;34202;52.536;6.042;2023-05-18T11:18:11;103039.73;;;15.68;52.07
48404;BME280;34202;52.536;6.042;2023-05-18T11:23:13;103041.02;;;15.62;51.58
48404;BME280;34202;52.536;6.042;2023-05-18T11:28:21;103043.23;;;15.34;50.33
48404;BME280;34202;52.536;6.042;2023-05-18T11:33:24;103039.96;;;15.06;51.05
48404;BME280;34202;52.536;6.042;2023-05-18T11:38:48;103030.71;;;15.07;51.37
48404;BME280;34202;52.536;6.042;2023-05-18T11:49:19;103029.48;;;14.92;50.62
48404;BME280;34202;52.536;6.042;2023-05-18T11:54:24;103020.18;;;14.92;51.75
48404;BME280;34202;52.536;6.042;2023-05-18T11:59:32;103012.86;;;15.08;51.83
48404;BME280;34202;52.536;6.042;2023-05-18T12:04:32;103002.31;;;15.24;52.04
48404;BME280;34202;52.536;6.042;2023-05-18T12:09:33;102998.34;;;15.43;52.21
48404;BME280;34202;52.536;6.042;2023-05-18T12:14:35;102991.40;;;15.64;52.15
48404;BME280;34202;52.536;6.042;2023-05-18T12:19:37;102985.37;;;15.87;52.44
48404;BME280;34202;52.536;6.042;2023-05-18T12:24:39;102983.81;;;16.07;51.62
48404;BME280;34202;52.536;6.042;2023-05-18T12:29:41;102986.83;;;16.09;50.42
48404;BME280;34202;52.536;6.042;2023-05-18T12:34:43;102982.13;;;16.02;49.76
48404;BME280;34202;52.536;6.042;2023-05-18T12:39:43;102972.09;;;15.81;49.46
48404;BME280;34202;52.536;6.042;2023-05-18T12:44:44;102971.29;;;15.85;50.17
48404;BME280;34202;52.536;6.042;2023-05-18T12:49:48;102965.31;;;16.04;50.70
48404;BME280;34202;52.536;6.042;2023-05-18T12:54:55;102970.29;;;16.17;50.15
48404;BME280;34202;52.536;6.042;2023-05-18T12:59:59;102969.08;;;16.18;49.28
48404;BME280;34202;52.536;6.042;2023-05-18T13:05:08;102967.77;;;16.24;49.23
48404;BME280;34202;52.536;6.042;2023-05-18T13:10:11;102964.65;;;16.38;49.76
48404;BME280;34202;52.536;6.042;2023-05-18T13:15:20;102961.27;;;16.57;49.62
48404;BME280;34202;52.536;6.042;2023-05-18T13:20:21;102957.55;;;16.66;48.70
48404;BME280;34202;52.536;6.042;2023-05-18T13:25:22;102953.21;;;16.59;47.56
48404;BME280;34202;52.536;6.042;2023-05-18T13:30:22;102947.18;;;16.33;46.74
48404;BME280;34202;52.536;6.042;2023-05-18T13:35:23;102940.36;;;16.24;47.46
48404;BME280;34202;52.536;6.042;2023-05-18T13:40:23;102936.77;;;16.19;47.82
48404;BME280;34202;52.536;6.042;2023-05-18T13:45:24;102933.52;;;16.25;48.42
48404;BME280;34202;52.536;6.042;2023-05-18T13:50:25;102926.79;;;16.32;48.29
48404;BME280;34202;52.536;6.042;2023-05-18T13:55:25;102920.75;;;16.39;48.27
48404;BME280;34202;52.536;6.042;2023-05-18T14:00:26;102923.45;;;16.32;47.54
48404;BME280;34202;52.536;6.042;2023-05-18T14:05:27;102914.36;;;16.34;48.09
48404;BME280;34202;52.536;6.042;2023-05-18T14:10:27;102911.87;;;16.44;48.07
48404;BME280;34202;52.536;6.042;2023-05-18T14:15:27;102910.05;;;16.53;48.23
48404;BME280;34202;52.536;6.042;2023-05-18T14:20:28;102902.23;;;16.71;47.93
48404;BME280;34202;52.536;6.042;2023-05-18T14:25:29;102900.17;;;16.74;47.85
48404;BME280;34202;52.536;6.042;2023-05-18T14:30:29;102892.82;;;16.88;47.84
48404;BME280;34202;52.536;6.042;2023-05-18T14:35:30;102888.45;;;16.89;47.46
48404;BME280;34202;52.536;6.042;2023-05-18T14:40:30;102891.64;;;17.05;48.00
48404;BME280;34202;52.536;6.042;2023-05-18T14:45:30;102879.36;;;17.23;47.49
48404;BME280;34202;52.536;6.042;2023-05-18T14:50:31;102878.60;;;17.34;47.04
48404;BME280;34202;52.536;6.042;2023-05-18T14:55:31;102873.27;;;17.29;46.27
48404;BME280;34202;52.536;6.042;2023-05-18T15:00:32;102870.64;;;17.30;46.54
48404;BME280;34202;52.536;6.042;2023-05-18T15:05:33;102872.10;;;17.36;46.52
48404;BME280;34202;52.536;6.042;2023-05-18T15:10:33;102867.43;;;17.42;46.28
48404;BME280;34202;52.536;6.042;2023-05-18T15:15:34;102863.19;;;17.41;45.90
48404;BME280;34202;52.536;6.042;2023-05-18T15:20:34;102861.30;;;17.30;45.40
48404;BME280;34202;52.536;6.042;2023-05-18T15:25:38;102862.45;;;17.06;44.94
48404;BME280;34202;52.536;6.042;2023-05-18T15:30:38;102860.71;;;16.81;45.22
48404;BME280;34202;52.536;6.042;2023-05-18T15:35:39;102860.96;;;16.74;45.62
48404;BME280;34202;52.536;6.042;2023-05-18T15:40:39;102858.41;;;16.67;45.85
48404;BME280;34202;52.536;6.042;2023-05-18T15:45:42;102853.38;;;16.59;46.03
48404;BME280;34202;52.536;6.042;2023-05-18T15:50:43;102846.75;;;16.51;46.40
48404;BME280;34202;52.536;6.042;2023-05-18T15:55:44;102845.13;;;16.48;46.72
48404;BME280;34202;52.536;6.042;2023-05-18T16:00:44;102842.05;;;16.41;46.44
48404;BME280;34202;52.536;6.042;2023-05-18T16:05:45;102834.67;;;16.29;46.88
48404;BME280;34202;52.536;6.042;2023-05-18T16:10:45;102832.77;;;16.31;47.03
48404;BME280;34202;52.536;6.042;2023-05-18T16:15:45;102836.91;;;16.26;47.11
48404;BME280;34202;52.536;6.042;2023-05-18T16:20:46;102831.86;;;16.16;47.39
48404;BME280;34202;52.536;6.042;2023-05-18T16:25:46;102827.18;;;16.10;47.27
48404;BME280;34202;52.536;6.042;2023-05-18T16:30:46;102821.46;;;16.04;47.46
48404;BME280;34202;52.536;6.042;2023-05-18T16:35:47;102823.15;;;15.99;47.66
48404;BME280;34202;52.536;6.042;2023-05-18T16:40:47;102827.41;;;15.91;47.50
48404;BME280;34202;52.536;6.042;2023-05-18T16:45:48;102825.00;;;15.83;47.84
48404;BME280;34202;52.536;6.042;2023-05-18T16:50:48;102827.59;;;15.80;47.74
48404;BME280;34202;52.536;6.042;2023-05-18T16:55:48;102824.02;;;15.76;47.95
48404;BME280;34202;52.536;6.042;2023-05-18T17:00:49;102827.30;;;15.74;47.93
48404;BME280;34202;52.536;6.042;2023-05-18T17:05:49;102825.95;;;15.69;48.40
48404;BME280;34202;52.536;6.042;2023-05-18T17:10:50;102821.40;;;15.59;48.97
48404;BME280;34202;52.536;6.042;2023-05-18T17:15:50;102820.52;;;15.48;49.64
48404;BME280;34202;52.536;6.042;2023-05-18T17:20:51;102816.64;;;15.38;50.07
48404;BME280;34202;52.536;6.042;2023-05-18T17:25:51;102811.79;;;15.32;50.83
48404;BME280;34202;52.536;6.042;2023-05-18T17:30:51;102811.48;;;15.24;51.66
48404;BME280;34202;52.536;6.042;2023-05-18T17:35:52;102812.57;;;15.17;52.57
48404;BME280;34202;52.536;6.042;2023-05-18T17:40:52;102819.60;;;15.09;53.22
48404;BME280;34202;52.536;6.042;2023-05-18T17:45:53;102820.72;;;15.03;54.06
48404;BME280;34202;52.536;6.042;2023-05-18T17:50:53;102826.16;;;14.95;54.69
48404;BME280;34202;52.536;6.042;2023-05-18T17:55:54;102827.81;;;14.81;55.39
48404;BME280;34202;52.536;6.042;2023-05-18T18:00:54;102829.00;;;14.63;55.95
48404;BME280;34202;52.536;6.042;2023-05-18T18:05:54;102834.12;;;14.50;56.79
48404;BME280;34202;52.536;6.042;2023-05-18T18:10:55;102835.09;;;14.38;57.46
48404;BME280;34202;52.536;6.042;2023-05-18T18:15:56;102838.33;;;14.27;58.35
48404;BME280;34202;52.536;6.042;2023-05-18T18:20:56;102841.58;;;14.16;58.95
48404;BME280;34202;52.536;6.042;2023-05-18T18:26:00;102836.89;;;14.03;59.57
48404;BME280;34202;52.536;6.042;2023-05-18T18:31:01;102838.73;;;13.93;60.30
48404;BME280;34202;52.536;6.042;2023-05-18T18:36:02;102838.42;;;13.80;60.70
48404;BME280;34202;52.536;6.042;2023-05-18T18:41:04;102840.31;;;13.72;61.23
48404;BME280;34202;52.536;6.042;2023-05-18T18:46:05;102843.84;;;13.60;61.59
48404;BME280;34202;52.536;6.042;2023-05-18T18:51:06;102852.88;;;13.50;62.15
48404;BME280;34202;52.536;6.042;2023-05-18T18:56:06;102860.83;;;13.41;62.54
48404;BME280;34202;52.536;6.042;2023-05-18T19:01:06;102857.85;;;13.28;62.51
48404;BME280;34202;52.536;6.042;2023-05-18T19:06:07;102857.86;;;13.17;62.70
48404;BME280;34202;52.536;6.042;2023-05-18T19:11:07;102865.89;;;13.04;62.93
48404;BME280;34202;52.536;6.042;2023-05-18T19:16:08;102867.29;;;12.91;63.32
48404;BME280;34202;52.536;6.042;2023-05-18T19:21:08;102869.11;;;12.76;63.81
48404;BME280;34202;52.536;6.042;2023-05-18T19:26:10;102870.33;;;12.59;64.13
48404;BME280;34202;52.536;6.042;2023-05-18T19:31:10;102874.77;;;12.45;64.61
48404;BME280;34202;52.536;6.042;2023-05-18T19:36:11;102879.11;;;12.33;65.00
48404;BME280;34202;52.536;6.042;2023-05-18T19:41:12;102883.51;;;12.23;65.51
48404;BME280;34202;52.536;6.042;2023-05-18T19:46:14;102885.23;;;12.11;65.89
48404;BME280;34202;52.536;6.042;2023-05-18T19:51:14;102892.45;;;11.98;66.47
48404;BME280;34202;52.536;6.042;2023-05-18T19:56:15;102895.77;;;11.84;66.99
48404;BME280;34202;52.536;6.042;2023-05-18T20:01:15;102898.15;;;11.71;67.49
48404;BME280;34202;52.536;6.042;2023-05-18T20:06:18;102903.59;;;11.63;68.01
48404;BME280;34202;52.536;6.042;2023-05-18T20:11:19;102903.80;;;11.53;68.47
48404;BME280;34202;52.536;6.042;2023-05-18T20:16:19;102903.43;;;11.43;68.91
48404;BME280;34202;52.536;6.042;2023-05-18T20:21:20;102908.95;;;11.32;69.45
48404;BME280;34202;52.536;6.042;2023-05-18T20:26:20;102914.75;;;11.19;69.93
48404;BME280;34202;52.536;6.042;2023-05-18T20:31:22;102919.27;;;11.04;70.27
48404;BME280;34202;52.536;6.042;2023-05-18T20:36:23;102925.85;;;10.90;70.86
48404;BME280;34202;52.536;6.042;2023-05-18T20:41:24;102930.84;;;10.70;71.48
48404;BME280;34202;52.536;6.042;2023-05-18T20:46:24;102934.13;;;10.57;72.03
48404;BME280;34202;52.536;6.042;2023-05-18T20:51:26;102935.05;;;10.45;72.80
48404;BME280;34202;52.536;6.042;2023-05-18T20:56:27;102933.70;;;10.37;73.32
48404;BME280;34202;52.536;6.042;2023-05-18T21:01:28;102935.58;;;10.33;73.87
48404;BME280;34202;52.536;6.042;2023-05-18T21:06:28;102937.73;;;10.26;74.15
48404;BME280;34202;52.536;6.042;2023-05-18T21:11:30;102938.71;;;10.21;74.50
48404;BME280;34202;52.536;6.042;2023-05-18T21:16:30;102938.80;;;10.10;74.95
48404;BME280;34202;52.536;6.042;2023-05-18T21:21:31;102934.19;;;9.99;75.36
48404;BME280;34202;52.536;6.042;2023-05-18T21:26:31;102934.09;;;9.89;76.16
48404;BME280;34202;52.536;6.042;2023-05-18T21:31:32;102932.91;;;9.82;76.61
48404;BME280;34202;52.536;6.042;2023-05-18T21:36:32;102935.63;;;9.73;77.04
48404;BME280;34202;52.536;6.042;2023-05-18T21:41:33;102940.52;;;9.65;77.43
48404;BME280;34202;52.536;6.042;2023-05-18T21:46:35;102946.04;;;9.60;77.75
48404;BME280;34202;52.536;6.042;2023-05-18T21:51:35;102956.77;;;9.52;78.10
48404;BME280;34202;52.536;6.042;2023-05-18T21:56:36;102956.96;;;9.40;78.39
48404;BME280;34202;52.536;6.042;2023-05-18T22:01:36;102953.70;;;9.33;78.85
48404;BME280;34202;52.536;6.042;2023-05-18T22:06:37;102952.46;;;9.25;79.28
48404;BME280;34202;52.536;6.042;2023-05-18T22:11:37;102950.04;;;9.18;79.68
48404;BME280;34202;52.536;6.042;2023-05-18T22:16:37;102947.59;;;9.10;80.26
48404;BME280;34202;52.536;6.042;2023-05-18T22:21:38;102948.39;;;9.05;80.96
48404;BME280;34202;52.536;6.042;2023-05-18T22:26:39;102948.73;;;9.01;81.43
48404;BME280;34202;52.536;6.042;2023-05-18T22:31:40;102947.80;;;8.96;81.85
48404;BME280;34202;52.536;6.042;2023-05-18T22:36:40;102950.21;;;8.92;82.14
48404;BME280;34202;52.536;6.042;2023-05-18T22:41:41;102950.60;;;8.85;82.65
48404;BME280;34202;52.536;6.042;2023-05-18T22:46:41;102951.84;;;8.78;82.95
48404;BME280;34202;52.536;6.042;2023-05-18T22:51:42;102952.52;;;8.71;83.44
48404;BME280;34202;52.536;6.042;2023-05-18T22:56:42;102949.56;;;8.64;83.65
48404;BME280;34202;52.536;6.042;2023-05-18T23:01:43;102950.80;;;8.57;84.11
48404;BME280;34202;52.536;6.042;2023-05-18T23:06:43;102949.47;;;8.50;84.81
48404;BME280;34202;52.536;6.042;2023-05-18T23:11:43;102956.64;;;8.45;85.46
48404;BME280;34202;52.536;6.042;2023-05-18T23:16:44;102961.56;;;8.40;86.05
48404;BME280;34202;52.536;6.042;2023-05-18T23:21:45;102953.66;;;8.34;86.24
48404;BME280;34202;52.536;6.042;2023-05-18T23:26:46;102952.00;;;8.29;86.46
48404;BME280;34202;52.536;6.042;2023-05-18T23:31:46;102955.89;;;8.23;86.82
48404;BME280;34202;52.536;6.042;2023-05-18T23:36:48;102951.75;;;8.17;87.13
48404;BME280;34202;52.536;6.042;2023-05-18T23:41:52;102945.60;;;8.12;87.50
48404;BME280;34202;52.536;6.042;2023-05-18T23:46:55;102947.82;;;8.04;87.88
48404;BME280;34202;52.536;6.042;2023-05-18T23:52:00;102945.74;;;7.98;88.49
48404;BME280;34202;52.536;6.042;2023-05-18T23:57:01;102942.38;;;7.93;88.78
